createdAt,value
2023-02-27T00:02:34.257Z,16.86
2023-02-27T00:05:36.621Z,16.90
2023-02-27T00:08:38.794Z,16.92
2023-02-27T00:11:41.660Z,16.92
2023-02-27T00:14:43.818Z,16.70
2023-02-27T00:17:46.572Z,16.42
2023-02-27T00:20:49.013Z,15.97
2023-02-27T00:23:51.993Z,15.02
2023-02-27T00:26:53.951Z,15.30
2023-02-27T00:29:56.280Z,15.58
2023-02-27T00:32:58.974Z,15.84
2023-02-27T00:36:02.670Z,16.05
2023-02-27T00:39:04.781Z,16.18
2023-02-27T00:42:07.888Z,16.26
2023-02-27T00:45:10.378Z,16.35
2023-02-27T00:48:12.788Z,16.38
2023-02-27T00:51:16.887Z,16.41
2023-02-27T00:54:20.058Z,16.39
2023-02-27T00:57:23.000Z,16.39
2023-02-27T01:00:26.469Z,16.36
2023-02-27T01:03:29.496Z,16.35
2023-02-27T01:06:32.195Z,16.35
2023-02-27T01:09:35.098Z,16.30
2023-02-27T01:12:37.570Z,16.33
2023-02-27T01:15:39.583Z,16.33
2023-02-27T01:18:42.933Z,16.30
2023-02-27T01:21:45.690Z,16.18
2023-02-27T01:24:48.253Z,16.07
2023-02-27T01:27:50.313Z,16.09
2023-02-27T01:30:52.849Z,16.14
2023-02-27T01:33:55.119Z,16.11
2023-02-27T01:36:58.029Z,16.09
2023-02-27T01:40:00.231Z,16.12
2023-02-27T01:43:03.017Z,16.12
2023-02-27T01:46:05.562Z,16.14
2023-02-27T01:49:24.499Z,16.18
2023-02-27T01:52:28.068Z,16.14
2023-02-27T01:55:33.910Z,16.04
2023-02-27T01:58:37.033Z,15.80
2023-02-27T02:01:39.984Z,15.20
2023-02-27T02:04:43.679Z,14.73
2023-02-27T02:07:46.358Z,14.88
2023-02-27T02:10:51.873Z,15.20
2023-02-27T02:13:57.681Z,15.04
2023-02-27T02:17:17.419Z,15.24
2023-02-27T02:20:41.619Z,15.07
2023-02-27T02:23:52.981Z,14.59
2023-02-27T02:27:23.666Z,14.13
2023-02-27T02:31:03.519Z,14.24
2023-02-27T02:34:31.453Z,14.83
2023-02-27T02:38:05.580Z,15.10
2023-02-27T02:41:23.235Z,15.13
2023-02-27T02:44:41.348Z,15.27
2023-02-27T02:48:18.133Z,15.33
2023-02-27T02:51:46.049Z,15.43
2023-02-27T02:55:01.665Z,15.57
2023-02-27T02:58:34.066Z,15.58
2023-02-27T03:01:43.063Z,15.68
2023-02-27T03:04:58.047Z,15.70
2023-02-27T03:08:15.421Z,15.63
2023-02-27T03:11:18.075Z,15.36
2023-02-27T03:14:35.724Z,15.40
2023-02-27T03:17:51.511Z,15.43
2023-02-27T03:21:19.067Z,15.04
2023-02-27T03:24:26.301Z,14.42
2023-02-27T03:27:38.744Z,13.81
2023-02-27T03:30:50.737Z,13.47
2023-02-27T03:34:02.765Z,13.52
2023-02-27T03:37:34.824Z,13.18
2023-02-27T03:40:49.427Z,12.91
2023-02-27T03:44:10.399Z,13.06
2023-02-27T03:47:13.177Z,12.80
2023-02-27T03:50:16.134Z,13.67
2023-02-27T03:53:28.748Z,14.24
2023-02-27T03:56:50.684Z,14.58
2023-02-27T03:59:53.588Z,14.67
2023-02-27T04:02:58.735Z,14.67
2023-02-27T04:06:23.766Z,14.54
2023-02-27T04:09:29.191Z,13.70
2023-02-27T04:12:53.581Z,13.43
2023-02-27T04:16:12.261Z,13.12
2023-02-27T04:19:22.844Z,12.95
2023-02-27T04:22:54.595Z,12.82
2023-02-27T04:26:19.826Z,13.57
2023-02-27T04:29:27.654Z,13.23
2023-02-27T04:32:57.380Z,12.88
2023-02-27T04:36:07.493Z,12.98
2023-02-27T04:39:19.822Z,12.95
2023-02-27T04:42:26.270Z,12.80
2023-02-27T04:45:32.582Z,12.72
2023-02-27T04:48:41.395Z,12.58
2023-02-27T04:51:58.707Z,12.45
2023-02-27T04:55:05.850Z,12.27
2023-02-27T04:58:14.702Z,11.86
2023-02-27T05:01:24.957Z,11.49
2023-02-27T05:04:31.886Z,11.72
2023-02-27T05:07:43.231Z,11.49
2023-02-27T05:10:58.567Z,11.25
2023-02-27T05:14:22.030Z,10.52
2023-02-27T05:17:34.838Z,10.03
2023-02-27T05:20:54.516Z,9.65
2023-02-27T05:24:24.606Z,9.45
2023-02-27T05:27:55.891Z,9.45
2023-02-27T05:31:15.279Z,9.75
2023-02-27T05:34:21.052Z,10.22
2023-02-27T05:37:37.476Z,10.22
2023-02-27T05:40:51.645Z,10.08
2023-02-27T05:43:58.744Z,10.56
2023-02-27T05:47:05.078Z,11.00
2023-02-27T05:50:15.647Z,10.77
2023-02-27T05:53:20.757Z,10.94
2023-02-27T05:56:27.259Z,11.65
2023-02-27T05:59:39.469Z,12.52
2023-02-27T06:02:43.995Z,13.32
2023-02-27T06:05:49.513Z,13.06
2023-02-27T06:08:52.353Z,11.70
2023-02-27T06:11:54.309Z,11.52
2023-02-27T06:14:56.853Z,12.51
2023-02-27T06:17:58.927Z,12.33
2023-02-27T06:21:01.714Z,13.38
2023-02-27T06:24:04.158Z,14.06
2023-02-27T06:27:07.401Z,14.45
2023-02-27T06:30:10.181Z,14.04
2023-02-27T06:33:12.725Z,14.24
2023-02-27T06:36:15.203Z,13.83
2023-02-27T06:39:17.950Z,13.76
2023-02-27T06:42:20.503Z,13.69
2023-02-27T06:45:24.377Z,14.32
2023-02-27T06:48:26.979Z,14.62
2023-02-27T06:51:29.508Z,14.82
2023-02-27T06:54:32.008Z,14.95
2023-02-27T06:57:34.551Z,15.00
2023-02-27T07:00:37.075Z,15.09
2023-02-27T07:03:39.504Z,14.34
2023-02-27T07:07:36.210Z,12.87
2023-02-27T07:10:07.751Z,12.19
2023-02-27T07:13:09.840Z,12.20
2023-02-27T07:16:12.627Z,11.97
2023-02-27T07:19:14.945Z,11.26
2023-02-27T07:22:17.622Z,11.14
2023-02-27T07:25:19.833Z,11.51
2023-02-27T07:28:22.593Z,11.89
2023-02-27T07:31:24.812Z,11.94
2023-02-27T07:34:27.353Z,12.44
2023-02-27T07:37:29.515Z,12.57
2023-02-27T07:40:32.263Z,13.12
2023-02-27T07:43:34.396Z,12.33
2023-02-27T07:46:37.177Z,13.77
2023-02-27T07:49:39.244Z,12.57
2023-02-27T07:52:43.351Z,12.20
2023-02-27T07:55:46.224Z,13.59
2023-02-27T07:58:49.229Z,13.96
2023-02-27T08:01:51.538Z,14.04
2023-02-27T08:04:54.176Z,14.16
2023-02-27T08:07:56.251Z,14.40
2023-02-27T08:10:58.801Z,13.59
2023-02-27T08:14:02.106Z,13.30
2023-02-27T08:17:04.969Z,13.27
2023-02-27T08:20:08.178Z,12.77
2023-02-27T08:23:12.030Z,13.36
2023-02-27T08:26:14.354Z,12.88
2023-02-27T08:29:17.468Z,12.29
2023-02-27T08:32:19.815Z,12.03
2023-02-27T08:35:23.529Z,12.50
2023-02-27T08:38:26.480Z,13.14
2023-02-27T08:41:29.320Z,13.33
2023-02-27T08:44:31.871Z,12.57
2023-02-27T08:47:34.626Z,12.21
2023-02-27T08:50:36.979Z,13.46
2023-02-27T08:53:39.655Z,14.07
2023-02-27T08:56:41.694Z,14.57
2023-02-27T08:59:45.123Z,14.27
2023-02-27T09:02:47.317Z,14.37
2023-02-27T09:05:49.947Z,14.24
2023-02-27T09:08:52.045Z,14.65
2023-02-27T09:11:54.651Z,14.14
2023-02-27T09:14:57.275Z,14.08
2023-02-27T09:18:03.409Z,13.90
2023-02-27T09:21:05.847Z,14.00
2023-02-27T09:24:19.151Z,13.77
2023-02-27T09:27:24.508Z,14.08
2023-02-27T09:30:27.512Z,14.06
2023-02-27T09:33:29.756Z,14.11
2023-02-27T09:36:32.150Z,14.38
2023-02-27T09:39:34.313Z,13.94
2023-02-27T09:42:45.584Z,13.91
2023-02-27T09:45:53.426Z,13.96
2023-02-27T09:49:01.260Z,14.14
2023-02-27T09:52:03.836Z,14.67
2023-02-27T09:55:14.701Z,14.27
2023-02-27T09:58:38.734Z,14.10
2023-02-27T10:01:46.934Z,13.96
2023-02-27T10:05:10.105Z,13.70
2023-02-27T10:08:23.337Z,13.86
2023-02-27T10:11:57.809Z,13.71
2023-02-27T10:15:21.096Z,13.96
2023-02-27T10:18:33.849Z,14.21
2023-02-27T10:21:45.768Z,14.58
2023-02-27T10:24:54.888Z,14.95
2023-02-27T10:28:01.972Z,14.45
2023-02-27T10:31:16.066Z,14.08
2023-02-27T10:34:18.925Z,14.11
2023-02-27T10:37:24.188Z,14.40
2023-02-27T10:40:27.525Z,14.17
2023-02-27T10:43:29.734Z,14.41
2023-02-27T10:46:34.714Z,14.62
2023-02-27T10:49:37.791Z,14.79
2023-02-27T10:52:59.188Z,14.38
2023-02-27T10:56:07.260Z,14.79
2023-02-27T10:59:20.475Z,14.99
2023-02-27T11:02:26.925Z,14.64
2023-02-27T11:05:33.644Z,15.39
2023-02-27T11:08:36.483Z,15.93
2023-02-27T11:11:39.057Z,16.25
2023-02-27T11:15:13.239Z,16.02
2023-02-27T11:18:20.043Z,16.28
2023-02-27T11:21:29.401Z,16.45
2023-02-27T11:24:32.968Z,16.22
2023-02-27T11:27:35.100Z,16.15
2023-02-27T11:30:37.711Z,15.91
2023-02-27T11:33:48.269Z,15.87
2023-02-27T11:36:55.886Z,15.84
2023-02-27T11:40:10.132Z,15.95
2023-02-27T11:43:23.571Z,16.02
2023-02-27T11:46:45.426Z,15.75
2023-02-27T11:49:52.248Z,15.98
2023-02-27T11:53:06.244Z,15.87
2023-02-27T11:56:13.080Z,15.73
2023-02-27T11:59:19.980Z,15.12
2023-02-27T12:02:25.875Z,15.60
2023-02-27T12:05:33.263Z,15.26
2023-02-27T12:08:46.362Z,15.09
2023-02-27T12:11:50.545Z,15.13
2023-02-27T12:15:04.441Z,15.09
2023-02-27T12:18:26.119Z,15.36
2023-02-27T12:21:33.801Z,15.46
2023-02-27T12:24:49.594Z,15.04
2023-02-27T12:28:00.497Z,14.96
2023-02-27T12:31:13.800Z,14.75
2023-02-27T12:34:29.569Z,14.89
2023-02-27T12:37:35.397Z,15.02
2023-02-27T12:40:43.679Z,15.03
2023-02-27T12:44:04.854Z,14.67
2023-02-27T12:47:19.987Z,14.72
2023-02-27T12:50:24.699Z,15.04
2023-02-27T12:53:40.796Z,14.25
2023-02-27T12:56:59.164Z,14.71
2023-02-27T13:00:09.502Z,14.52
2023-02-27T13:03:18.996Z,14.65
2023-02-27T13:06:53.156Z,14.73
2023-02-27T13:10:02.172Z,14.49
2023-02-27T13:13:29.453Z,15.03
2023-02-27T13:16:41.413Z,15.22
2023-02-27T13:19:52.145Z,15.33
2023-02-27T13:23:06.761Z,14.91
2023-02-27T13:26:21.589Z,14.73
2023-02-27T13:29:35.034Z,15.18
2023-02-27T13:32:55.767Z,15.13
2023-02-27T13:36:10.069Z,14.93
2023-02-27T13:39:47.104Z,14.82
2023-02-27T13:42:53.573Z,14.72
2023-02-27T13:46:21.945Z,14.55
2023-02-27T13:49:30.195Z,14.49
2023-02-27T13:52:35.585Z,14.38
2023-02-27T13:55:38.910Z,14.85
2023-02-27T13:58:43.046Z,14.61
2023-02-27T14:02:01.071Z,14.16
2023-02-27T14:05:06.912Z,14.91
2023-02-27T14:08:27.232Z,14.49
2023-02-27T14:11:41.500Z,14.78
2023-02-27T14:14:50.355Z,15.22
2023-02-27T14:18:12.608Z,15.07
2023-02-27T14:21:57.893Z,14.79
2023-02-27T14:25:07.185Z,14.68
2023-02-27T14:28:34.015Z,15.00
2023-02-27T14:31:40.997Z,14.52
2023-02-27T14:34:43.412Z,14.61
2023-02-27T14:37:46.269Z,14.73
2023-02-27T14:41:03.485Z,15.27
2023-02-27T14:44:06.248Z,15.02
2023-02-27T14:47:16.373Z,15.22
2023-02-27T14:50:34.448Z,15.19
2023-02-27T14:53:36.548Z,15.37
2023-02-27T14:56:39.387Z,15.30
2023-02-27T14:59:51.531Z,15.53
2023-02-27T15:02:54.710Z,15.71
2023-02-27T15:06:01.505Z,15.85
2023-02-27T15:09:04.896Z,15.94
2023-02-27T15:12:16.553Z,16.09
2023-02-27T15:15:21.417Z,15.44
2023-02-27T15:18:25.066Z,15.68
2023-02-27T15:21:31.948Z,15.95
2023-02-27T15:24:49.980Z,15.80
2023-02-27T15:27:58.054Z,15.88
2023-02-27T15:31:00.554Z,15.91
2023-02-27T15:34:03.933Z,15.53
2023-02-27T15:37:07.261Z,15.64
2023-02-27T15:40:22.819Z,15.67
2023-02-27T15:43:27.037Z,15.85
2023-02-27T15:46:30.217Z,15.64
2023-02-27T15:49:32.528Z,15.46
2023-02-27T15:52:49.960Z,15.40
2023-02-27T15:56:13.061Z,15.27
2023-02-27T15:59:19.018Z,14.86
2023-02-27T16:02:28.907Z,14.75
2023-02-27T16:05:44.820Z,14.30
2023-02-27T16:08:52.870Z,14.16
2023-02-27T16:12:32.009Z,14.14
2023-02-27T16:15:37.131Z,13.88
2023-02-27T16:18:52.755Z,14.46
2023-02-27T16:22:07.244Z,14.64
2023-02-27T16:25:13.874Z,14.48
2023-02-27T16:28:18.018Z,14.59
2023-02-27T16:31:49.758Z,14.49
2023-02-27T16:35:00.325Z,14.59
2023-02-27T16:38:03.714Z,14.92
2023-02-27T16:41:05.998Z,14.40
2023-02-27T16:44:08.440Z,14.16
2023-02-27T16:47:11.126Z,14.18
2023-02-27T16:50:30.555Z,14.08
2023-02-27T16:53:32.813Z,14.24
2023-02-27T16:56:38.578Z,14.54
2023-02-27T16:59:43.054Z,15.06
2023-02-27T17:02:47.170Z,15.97
2023-02-27T17:05:50.717Z,16.73
2023-02-27T17:08:53.983Z,17.10
2023-02-27T17:11:58.553Z,17.28
2023-02-27T17:15:00.978Z,17.38
2023-02-27T17:18:03.632Z,17.34
2023-02-27T17:21:07.080Z,17.28
2023-02-27T17:24:09.260Z,17.10
2023-02-27T17:27:12.067Z,17.00
2023-02-27T17:30:15.120Z,16.76
2023-02-27T17:33:18.192Z,15.90
2023-02-27T17:36:21.440Z,15.03
2023-02-27T17:39:24.559Z,14.68
2023-02-27T17:42:26.584Z,14.61
2023-02-27T17:45:30.283Z,14.68
2023-02-27T17:48:32.532Z,14.46
2023-02-27T17:51:35.799Z,14.17
2023-02-27T17:54:38.048Z,14.17
2023-02-27T17:57:41.041Z,14.44
2023-02-27T18:00:43.368Z,15.07
2023-02-27T18:03:47.184Z,15.43
2023-02-27T18:06:52.261Z,15.66
2023-02-27T18:09:54.801Z,15.81
2023-02-27T18:12:57.073Z,15.67
2023-02-27T18:15:59.843Z,15.61
2023-02-27T18:19:03.829Z,15.77
2023-02-27T18:22:06.532Z,15.71
2023-02-27T18:25:08.908Z,15.81
2023-02-27T18:28:11.699Z,15.90
2023-02-27T18:31:26.579Z,16.01
2023-02-27T18:34:29.271Z,16.05
2023-02-27T18:37:31.901Z,16.11
2023-02-27T18:40:34.269Z,16.11
2023-02-27T18:43:37.043Z,15.94
2023-02-27T18:46:40.554Z,15.93
2023-02-27T18:49:42.895Z,16.05
2023-02-27T18:52:47.287Z,16.17
2023-02-27T18:55:49.452Z,16.12
2023-02-27T18:58:53.722Z,16.05
2023-02-27T19:01:56.373Z,16.02
2023-02-27T19:05:01.564Z,16.05
2023-02-27T19:08:03.636Z,16.15
2023-02-27T19:11:06.752Z,16.19
2023-02-27T19:14:11.910Z,16.21
2023-02-27T19:17:14.836Z,16.24
2023-02-27T19:20:19.255Z,16.28
2023-02-27T19:23:21.991Z,16.26
2023-02-27T19:26:25.982Z,16.29
2023-02-27T19:29:29.932Z,16.30
2023-02-27T19:32:32.233Z,16.29
2023-02-27T19:35:38.433Z,16.33
2023-02-27T19:38:40.781Z,16.38
2023-02-27T19:41:43.171Z,16.38
2023-02-27T19:44:45.474Z,16.42
2023-02-27T19:47:48.044Z,16.41
2023-02-27T19:50:50.877Z,16.35
2023-02-27T19:53:54.004Z,16.36
2023-02-27T19:56:56.435Z,16.45
2023-02-27T20:00:00.254Z,16.48
2023-02-27T20:03:03.480Z,16.48
2023-02-27T20:06:06.936Z,16.45
2023-02-27T20:09:11.164Z,16.45
2023-02-27T20:12:13.499Z,16.47
2023-02-27T20:15:15.616Z,16.55
2023-02-27T20:18:18.081Z,16.51
2023-02-27T20:21:23.291Z,16.55
2023-02-27T20:24:27.826Z,16.53
2023-02-27T20:27:29.980Z,16.62
2023-02-27T20:30:33.079Z,16.65
2023-02-27T20:33:35.256Z,16.75
2023-02-27T20:36:40.026Z,16.75
2023-02-27T20:39:45.681Z,16.75
2023-02-27T20:42:48.788Z,16.59
2023-02-27T20:45:50.928Z,16.47
2023-02-27T20:48:56.616Z,16.12
2023-02-27T20:51:59.049Z,15.70
2023-02-27T20:55:01.770Z,15.60
2023-02-27T20:58:03.858Z,15.23
2023-02-27T21:01:12.118Z,15.19
2023-02-27T21:04:14.279Z,15.23
2023-02-27T21:07:19.452Z,15.50
2023-02-27T21:10:21.626Z,15.77
2023-02-27T21:13:24.671Z,15.93
2023-02-27T21:16:27.237Z,16.01
2023-02-27T21:19:30.126Z,16.04
2023-02-27T21:22:33.364Z,16.14
2023-02-27T21:25:41.347Z,16.22
2023-02-27T21:28:47.888Z,16.26
2023-02-27T21:31:51.695Z,16.38
2023-02-27T21:34:54.125Z,16.39
2023-02-27T21:37:56.599Z,16.30
2023-02-27T21:40:58.864Z,16.33
2023-02-27T21:44:04.243Z,16.19
2023-02-27T21:47:10.466Z,16.25
2023-02-27T21:50:18.400Z,16.38
2023-02-27T21:53:20.388Z,16.49
2023-02-27T21:56:23.436Z,16.60
2023-02-27T21:59:26.208Z,16.63
2023-02-27T22:02:29.113Z,16.72
2023-02-27T22:05:31.159Z,16.75
2023-02-27T22:08:34.019Z,16.79
2023-02-27T22:11:36.340Z,16.83
2023-02-27T22:14:39.695Z,16.87
2023-02-27T22:17:41.904Z,16.90
2023-02-27T22:20:44.678Z,16.96
2023-02-27T22:23:50.510Z,17.02
2023-02-27T22:26:53.116Z,17.04
2023-02-27T22:29:55.089Z,17.06
2023-02-27T22:32:57.564Z,17.04
2023-02-27T22:35:59.828Z,17.10
2023-02-27T22:39:04.632Z,17.10
2023-02-27T22:42:06.657Z,17.07
2023-02-27T22:45:09.738Z,17.10
2023-02-27T22:48:11.787Z,17.07
2023-02-27T22:51:16.049Z,17.06
2023-02-27T22:54:20.489Z,17.00
2023-02-27T22:57:22.986Z,17.10
2023-02-27T23:00:24.843Z,16.55
2023-02-27T23:03:27.359Z,16.00
2023-02-27T23:06:32.391Z,16.30
2023-02-27T23:09:35.078Z,16.59
2023-02-27T23:12:37.276Z,16.52
2023-02-27T23:15:40.475Z,16.59
2023-02-27T23:18:46.523Z,16.62
2023-02-27T23:21:49.497Z,16.59
2023-02-27T23:24:52.360Z,16.59
2023-02-27T23:27:54.922Z,16.59
2023-02-27T23:31:00.471Z,16.21
2023-02-27T23:34:05.948Z,16.41
2023-02-27T23:37:08.139Z,16.41
2023-02-27T23:40:12.350Z,16.38
2023-02-27T23:43:33.176Z,16.33
2023-02-27T23:46:35.788Z,16.42
2023-02-27T23:49:37.747Z,16.52
2023-02-27T23:52:40.457Z,16.68
2023-02-27T23:55:43.715Z,16.72
2023-02-27T23:58:47.007Z,16.77
